createdAt,value
2022-08-20T00:02:07.637Z,5.15
2022-08-20T00:04:34.037Z,4.38
2022-08-20T00:07:00.421Z,4.55
2022-08-20T00:09:26.841Z,4.30
2022-08-20T00:11:56.454Z,4.50
2022-08-20T00:14:22.967Z,4.57
2022-08-20T00:16:49.321Z,4.80
2022-08-20T00:19:15.681Z,4.97
2022-08-20T00:21:42.117Z,4.88
2022-08-20T00:24:08.504Z,5.57
2022-08-20T00:26:34.906Z,4.85
2022-08-20T00:29:03.341Z,4.85
2022-08-20T00:31:29.712Z,4.65
2022-08-20T00:33:56.110Z,5.57
2022-08-20T00:36:32.609Z,5.82
2022-08-20T00:38:59.432Z,5.13
2022-08-20T00:41:27.116Z,5.63
2022-08-20T00:44:15.992Z,5.18
2022-08-20T00:46:46.736Z,6.07
2022-08-20T00:49:19.702Z,6.88
2022-08-20T00:52:00.431Z,5.47
2022-08-20T00:54:43.376Z,6.43
2022-08-20T00:57:21.841Z,5.70
2022-08-20T00:59:49.969Z,5.88
2022-08-20T01:02:18.278Z,6.10
2022-08-20T01:04:45.876Z,6.70
2022-08-20T01:07:12.246Z,6.82
2022-08-20T01:09:58.545Z,5.60
2022-08-20T01:12:26.820Z,6.90
2022-08-20T01:14:54.695Z,5.65
2022-08-20T01:17:24.173Z,6.18
2022-08-20T01:20:19.756Z,6.50
2022-08-20T01:22:54.463Z,7.00
2022-08-20T01:25:29.665Z,5.82
2022-08-20T01:27:56.600Z,5.97
2022-08-20T01:30:27.375Z,5.55
2022-08-20T01:32:53.951Z,6.32
2022-08-20T01:35:22.766Z,6.60
2022-08-20T01:37:49.166Z,6.78
2022-08-20T01:40:30.257Z,6.22
2022-08-20T01:42:59.408Z,5.97
2022-08-20T01:45:26.898Z,6.50
2022-08-20T01:47:54.482Z,6.53
2022-08-20T01:50:25.789Z,6.00
2022-08-20T01:53:01.416Z,6.28
2022-08-20T01:55:27.864Z,6.35
2022-08-20T01:57:54.563Z,6.40
2022-08-20T02:00:22.090Z,5.97
2022-08-20T02:02:48.844Z,6.80
2022-08-20T02:05:15.488Z,6.25
2022-08-20T02:07:42.102Z,6.28
2022-08-20T02:10:11.287Z,6.75
2022-08-20T02:12:37.851Z,6.38
2022-08-20T02:15:06.062Z,6.85
2022-08-20T02:17:32.435Z,7.13
2022-08-20T02:20:03.133Z,5.50
2022-08-20T02:22:52.105Z,6.38
2022-08-20T02:25:21.144Z,6.50
2022-08-20T02:27:51.142Z,6.78
2022-08-20T02:30:27.806Z,6.72
2022-08-20T02:32:56.443Z,6.30
2022-08-20T02:35:23.401Z,6.32
2022-08-20T02:37:50.501Z,6.63
2022-08-20T02:40:30.842Z,7.78
2022-08-20T02:42:59.221Z,6.53
2022-08-20T02:45:25.830Z,6.90
2022-08-20T02:47:52.518Z,7.18
2022-08-20T02:50:20.177Z,6.53
2022-08-20T02:52:51.632Z,6.78
2022-08-20T02:55:27.837Z,6.15
2022-08-20T02:57:59.682Z,7.07
2022-08-20T03:00:28.495Z,7.32
2022-08-20T03:02:55.040Z,6.60
2022-08-20T03:05:21.434Z,6.88
2022-08-20T03:07:51.530Z,6.38
2022-08-20T03:10:17.917Z,7.03
2022-08-20T03:12:44.297Z,7.50
2022-08-20T03:15:17.189Z,6.80
2022-08-20T03:17:45.194Z,7.15
2022-08-20T03:20:12.403Z,5.95
2022-08-20T03:22:38.930Z,6.40
2022-08-20T03:25:06.756Z,6.88
2022-08-20T03:27:36.412Z,7.00
2022-08-20T03:30:06.469Z,7.68
2022-08-20T03:32:32.862Z,6.88
2022-08-20T03:34:59.273Z,7.90
2022-08-20T03:37:28.764Z,7.40
2022-08-20T03:39:55.207Z,7.30
2022-08-20T03:42:21.590Z,6.70
2022-08-20T03:44:47.941Z,6.90
2022-08-20T03:47:25.142Z,6.68
2022-08-20T03:49:51.529Z,7.30
2022-08-20T03:52:17.945Z,7.45
2022-08-20T03:54:44.441Z,7.05
2022-08-20T03:57:14.362Z,6.85
2022-08-20T03:59:41.991Z,6.40
2022-08-20T04:02:08.735Z,6.00
2022-08-20T04:04:35.210Z,5.75
2022-08-20T04:07:09.924Z,6.95
2022-08-20T04:09:38.378Z,6.70
2022-08-20T04:12:04.882Z,6.97
2022-08-20T04:14:31.286Z,6.85
2022-08-20T04:16:58.107Z,6.68
2022-08-20T04:19:24.889Z,7.22
2022-08-20T04:21:51.244Z,6.38
2022-08-20T04:24:24.558Z,7.03
2022-08-20T04:26:58.831Z,7.10
2022-08-20T04:29:25.782Z,7.18
2022-08-20T04:31:58.890Z,6.03
2022-08-20T04:34:25.256Z,6.45
2022-08-20T04:36:51.651Z,6.55
2022-08-20T04:39:18.386Z,6.20
2022-08-20T04:41:44.961Z,6.30
2022-08-20T04:44:12.193Z,6.85
2022-08-20T04:46:39.831Z,6.53
2022-08-20T04:49:06.890Z,6.03
2022-08-20T04:51:33.639Z,6.22
2022-08-20T04:54:01.334Z,6.35
2022-08-20T04:56:29.832Z,6.30
2022-08-20T04:58:58.609Z,6.57
2022-08-20T05:01:25.616Z,6.10
2022-08-20T05:03:53.278Z,5.93
2022-08-20T05:06:19.680Z,6.45
2022-08-20T05:08:46.064Z,6.22
2022-08-20T05:11:33.577Z,6.07
2022-08-20T05:13:59.865Z,6.18
2022-08-20T05:16:26.457Z,6.60
2022-08-20T05:18:53.079Z,5.72
2022-08-20T05:21:20.961Z,6.22
2022-08-20T05:23:47.751Z,5.93
2022-08-20T05:26:14.161Z,6.05
2022-08-20T05:28:54.399Z,5.68
2022-08-20T05:31:32.204Z,5.80
2022-08-20T05:34:12.504Z,5.82
2022-08-20T05:36:42.584Z,5.80
2022-08-20T05:39:10.059Z,6.35
2022-08-20T05:41:37.466Z,6.05
2022-08-20T05:44:04.604Z,5.90
2022-08-20T05:46:31.872Z,5.72
2022-08-20T05:49:00.149Z,6.40
2022-08-20T05:51:28.272Z,5.60
2022-08-20T05:53:54.738Z,5.45
2022-08-20T05:56:26.852Z,5.78
2022-08-20T05:58:53.565Z,5.55
2022-08-20T06:01:20.055Z,5.15
2022-08-20T06:03:46.494Z,5.85
2022-08-20T06:06:17.999Z,5.20
2022-08-20T06:08:59.813Z,5.55
2022-08-20T06:11:26.171Z,5.03
2022-08-20T06:13:52.586Z,5.47
2022-08-20T06:16:18.965Z,4.97
2022-08-20T06:18:47.331Z,5.18
2022-08-20T06:21:13.949Z,5.22
2022-08-20T06:23:57.540Z,6.15
2022-08-20T06:26:29.749Z,5.82
2022-08-20T06:28:58.419Z,5.88
2022-08-20T06:31:24.839Z,5.30
2022-08-20T06:33:51.283Z,5.53
2022-08-20T06:36:19.017Z,5.53
2022-08-20T06:38:46.268Z,5.13
2022-08-20T06:41:13.332Z,5.03
2022-08-20T06:43:39.819Z,5.70
2022-08-20T06:46:06.189Z,5.28
2022-08-20T06:48:32.604Z,5.40
2022-08-20T06:50:59.041Z,5.30
2022-08-20T06:53:25.445Z,5.15
2022-08-20T06:55:54.541Z,5.15
2022-08-20T06:58:36.782Z,4.53
2022-08-20T07:01:09.570Z,4.43
2022-08-20T07:03:37.139Z,4.70
2022-08-20T07:06:04.007Z,4.57
2022-08-20T07:08:30.400Z,4.00
2022-08-20T07:10:56.857Z,4.10
2022-08-20T07:13:23.254Z,4.32
2022-08-20T07:15:53.104Z,4.03
2022-08-20T07:18:28.345Z,3.90
2022-08-20T07:20:55.895Z,4.00
2022-08-20T07:23:22.928Z,4.05
2022-08-20T07:25:49.533Z,3.50
2022-08-20T07:28:19.711Z,3.50
2022-08-20T07:30:56.830Z,3.20
2022-08-20T07:33:28.614Z,3.22
2022-08-20T07:35:57.439Z,2.90
2022-08-20T07:38:26.410Z,2.72
2022-08-20T07:41:13.252Z,2.53
2022-08-20T07:43:40.241Z,2.30
2022-08-20T07:46:08.560Z,2.10
2022-08-20T07:48:37.131Z,1.83
2022-08-20T07:51:05.850Z,2.00
2022-08-20T07:53:35.900Z,1.70
2022-08-20T07:56:05.517Z,1.60
2022-08-20T07:58:33.489Z,1.58
2022-08-20T08:01:00.660Z,1.80
2022-08-20T08:03:39.856Z,1.65
2022-08-20T08:06:14.426Z,1.77
2022-08-20T08:08:41.729Z,2.03
2022-08-20T08:11:08.575Z,1.95
2022-08-20T08:13:38.432Z,1.90
2022-08-20T08:16:07.288Z,2.00
2022-08-20T08:18:39.717Z,1.80
2022-08-20T08:21:07.885Z,1.75
2022-08-20T08:23:34.656Z,2.28
2022-08-20T08:26:01.423Z,1.70
2022-08-20T08:28:27.963Z,1.80
2022-08-20T08:30:55.041Z,1.80
2022-08-20T08:33:24.771Z,1.73
2022-08-20T08:35:51.179Z,1.52
2022-08-20T08:38:18.417Z,1.95
2022-08-20T08:40:45.039Z,1.70
2022-08-20T08:43:14.142Z,2.00
2022-08-20T08:45:55.258Z,1.92
2022-08-20T08:48:33.084Z,1.95
2022-08-20T08:51:01.122Z,1.50
2022-08-20T08:53:40.116Z,1.70
2022-08-20T08:56:06.631Z,1.80
2022-08-20T08:58:33.362Z,2.00
2022-08-20T09:01:06.841Z,1.83
2022-08-20T09:03:38.837Z,1.50
2022-08-20T09:06:05.858Z,1.60
2022-08-20T09:08:41.814Z,1.60
2022-08-20T09:11:08.338Z,1.50
2022-08-20T09:13:35.243Z,1.70
2022-08-20T09:16:01.598Z,1.50
2022-08-20T09:18:27.993Z,1.38
2022-08-20T09:20:54.426Z,1.67
2022-08-20T09:23:20.893Z,1.70
2022-08-20T09:25:47.748Z,1.30
2022-08-20T09:28:14.110Z,1.42
2022-08-20T09:30:40.457Z,1.60
2022-08-20T09:33:08.369Z,1.60
2022-08-20T09:35:34.734Z,1.40
2022-08-20T09:38:05.305Z,1.77
2022-08-20T09:40:31.663Z,1.60
2022-08-20T09:42:58.324Z,1.27
2022-08-20T09:45:25.036Z,1.50
2022-08-20T09:47:56.103Z,1.63
2022-08-20T09:50:27.799Z,1.83
2022-08-20T09:52:55.746Z,1.60
2022-08-20T09:55:37.239Z,1.50
2022-08-20T09:58:13.963Z,1.80
2022-08-20T10:00:40.575Z,1.63
2022-08-20T10:03:06.980Z,1.70
2022-08-20T10:05:33.394Z,1.60
2022-08-20T10:07:59.797Z,1.50
2022-08-20T10:10:26.486Z,1.60
2022-08-20T10:12:54.942Z,1.38
2022-08-20T10:15:21.837Z,1.80
2022-08-20T10:17:48.362Z,1.50
2022-08-20T10:20:15.117Z,1.38
2022-08-20T10:22:41.523Z,1.58
2022-08-20T10:25:08.770Z,1.70
2022-08-20T10:27:35.217Z,1.45
2022-08-20T10:30:05.327Z,1.60
2022-08-20T10:32:31.912Z,2.08
2022-08-20T10:34:58.460Z,1.50
2022-08-20T10:37:26.374Z,1.60
2022-08-20T10:39:53.990Z,1.50
2022-08-20T10:42:20.489Z,1.55
2022-08-20T10:44:47.074Z,1.52
2022-08-20T10:47:23.161Z,1.45
2022-08-20T10:49:51.748Z,1.40
2022-08-20T10:52:18.203Z,3.03
2022-08-20T10:54:44.873Z,1.65
2022-08-20T10:57:20.742Z,1.38
2022-08-20T10:59:49.176Z,1.45
2022-08-20T11:02:16.324Z,1.35
2022-08-20T11:04:43.057Z,2.00
2022-08-20T11:07:52.829Z,1.50
2022-08-20T11:10:25.270Z,1.70
2022-08-20T11:12:51.672Z,2.50
2022-08-20T11:15:18.125Z,1.55
2022-08-20T11:17:44.786Z,1.65
2022-08-20T11:20:13.614Z,4.38
2022-08-20T11:22:40.171Z,1.50
2022-08-20T11:25:07.688Z,1.50
2022-08-20T11:27:37.374Z,1.55
2022-08-20T11:30:06.482Z,1.65
2022-08-20T11:32:32.868Z,1.45
2022-08-20T11:34:59.267Z,1.92
2022-08-20T11:37:27.124Z,1.70
2022-08-20T11:39:53.646Z,1.27
2022-08-20T11:42:20.064Z,1.67
2022-08-20T11:44:46.428Z,1.40
2022-08-20T11:47:25.388Z,1.40
2022-08-20T11:50:21.272Z,1.10
2022-08-20T11:52:47.737Z,1.30
2022-08-20T11:55:15.766Z,1.20
2022-08-20T11:57:44.474Z,1.80
2022-08-20T12:00:14.777Z,1.70
2022-08-20T12:02:42.211Z,1.60
2022-08-20T12:05:10.955Z,1.25
2022-08-20T12:07:37.528Z,1.45
2022-08-20T12:10:06.052Z,1.40
2022-08-20T12:12:32.613Z,1.70
2022-08-20T12:14:58.989Z,1.48
2022-08-20T12:17:28.256Z,1.63
2022-08-20T12:19:57.559Z,1.52
2022-08-20T12:22:25.602Z,1.30
2022-08-20T12:24:53.607Z,1.40
2022-08-20T12:27:23.144Z,1.20
2022-08-20T12:29:51.960Z,1.48
2022-08-20T12:32:22.440Z,1.27
2022-08-20T12:34:49.679Z,1.48
2022-08-20T12:37:19.041Z,1.38
2022-08-20T12:39:48.828Z,1.15
2022-08-20T12:42:16.168Z,1.20
2022-08-20T12:44:43.086Z,1.38
2022-08-20T12:47:22.145Z,1.20
2022-08-20T12:49:51.905Z,1.25
2022-08-20T12:52:20.571Z,1.48
2022-08-20T12:54:47.675Z,1.30
2022-08-20T12:57:28.235Z,1.50
2022-08-20T13:00:00.908Z,1.40
2022-08-20T13:02:30.413Z,1.40
2022-08-20T13:04:58.339Z,1.60
2022-08-20T13:07:27.657Z,1.48
2022-08-20T13:09:54.200Z,1.23
2022-08-20T13:12:20.563Z,1.45
2022-08-20T13:14:47.099Z,1.38
2022-08-20T13:17:17.753Z,1.63
2022-08-20T13:19:44.467Z,1.52
2022-08-20T13:22:11.684Z,1.60
2022-08-20T13:24:38.013Z,1.48
2022-08-20T13:27:13.140Z,1.38
2022-08-20T13:29:49.328Z,1.42
2022-08-20T13:32:16.415Z,1.33
2022-08-20T13:34:42.948Z,1.55
2022-08-20T13:37:23.096Z,1.55
2022-08-20T13:39:52.018Z,1.60
2022-08-20T13:42:19.535Z,1.40
2022-08-20T13:44:46.854Z,1.63
2022-08-20T13:47:18.905Z,1.38
2022-08-20T13:49:46.108Z,1.60
2022-08-20T13:52:12.646Z,1.70
2022-08-20T13:54:43.643Z,1.90
2022-08-20T13:57:13.580Z,1.95
2022-08-20T13:59:42.418Z,2.00
2022-08-20T14:02:11.178Z,1.65
2022-08-20T14:04:38.169Z,1.65
2022-08-20T14:07:21.503Z,1.75
2022-08-20T14:09:51.965Z,1.48
2022-08-20T14:12:18.303Z,1.90
2022-08-20T14:14:44.696Z,1.88
2022-08-20T14:17:14.084Z,1.98
2022-08-20T14:19:41.519Z,1.77
2022-08-20T14:22:07.882Z,1.88
2022-08-20T14:24:34.241Z,1.70
2022-08-20T14:27:00.594Z,1.70
2022-08-20T14:29:27.138Z,1.70
2022-08-20T14:34:24.884Z,1.67
2022-08-20T14:36:51.258Z,1.60
2022-08-20T14:39:20.413Z,1.67
2022-08-20T14:41:46.971Z,2.03
2022-08-20T14:44:13.305Z,1.42
2022-08-20T14:46:39.666Z,1.70
2022-08-20T14:49:06.002Z,1.58
2022-08-20T14:51:32.355Z,1.50
2022-08-20T14:53:58.686Z,1.67
2022-08-20T14:56:25.035Z,1.70
2022-08-20T14:58:51.404Z,2.15
2022-08-20T15:01:17.758Z,2.13
2022-08-20T15:03:44.117Z,1.70
2022-08-20T15:06:22.276Z,2.10
2022-08-20T15:08:48.938Z,1.85
2022-08-20T15:11:15.350Z,1.90
2022-08-20T15:13:41.705Z,1.83
2022-08-20T15:16:08.073Z,1.75
2022-08-20T15:18:34.479Z,1.85
2022-08-20T15:21:01.155Z,1.92
2022-08-20T15:23:27.513Z,1.75
2022-08-20T15:25:53.985Z,1.85
2022-08-20T15:28:20.344Z,1.75
2022-08-20T15:30:46.690Z,1.90
2022-08-20T15:33:13.054Z,1.75
2022-08-20T15:35:39.772Z,1.90
2022-08-20T15:38:06.162Z,1.73
2022-08-20T15:40:33.637Z,1.60
2022-08-20T15:43:02.245Z,2.08
2022-08-20T15:45:28.780Z,1.90
2022-08-20T15:48:06.741Z,2.10
2022-08-20T15:50:38.088Z,2.00
2022-08-20T15:53:11.284Z,1.95
2022-08-20T15:55:43.836Z,2.05
2022-08-20T15:58:17.664Z,2.08
2022-08-20T16:00:57.136Z,1.80
2022-08-20T16:04:02.140Z,1.88
2022-08-20T16:06:31.885Z,1.90
2022-08-20T16:09:27.127Z,2.10
2022-08-20T16:12:17.501Z,1.95
2022-08-20T16:14:48.713Z,1.90
2022-08-20T16:17:20.689Z,1.80
2022-08-20T16:20:02.360Z,2.10
2022-08-20T16:22:30.603Z,2.08
2022-08-20T16:24:57.485Z,1.80
2022-08-20T16:27:35.727Z,2.13
2022-08-20T16:30:09.032Z,1.88
2022-08-20T16:32:42.061Z,2.08
2022-08-20T16:35:14.118Z,2.00
2022-08-20T16:38:03.332Z,2.35
2022-08-20T16:40:34.469Z,2.08
2022-08-20T16:43:04.674Z,2.20
2022-08-20T16:45:51.000Z,2.42
2022-08-20T16:48:19.124Z,2.50
2022-08-20T16:50:58.323Z,2.60
2022-08-20T16:53:26.510Z,2.60
2022-08-20T16:55:54.266Z,2.88
2022-08-20T16:58:21.206Z,2.47
2022-08-20T17:00:47.773Z,2.80
2022-08-20T17:03:38.615Z,2.33
2022-08-20T17:06:24.295Z,2.63
2022-08-20T17:08:51.263Z,2.13
2022-08-20T17:11:25.309Z,2.33
2022-08-20T17:14:07.214Z,2.30
2022-08-20T17:16:41.182Z,2.50
2022-08-20T17:19:11.123Z,2.38
2022-08-20T17:21:38.708Z,2.22
2022-08-20T17:24:16.714Z,2.38
2022-08-20T17:26:48.067Z,2.30
2022-08-20T17:29:19.105Z,2.40
2022-08-20T17:31:50.855Z,1.80
2022-08-20T17:36:56.093Z,2.10
2022-08-20T17:39:24.520Z,2.22
2022-08-20T17:41:54.759Z,2.30
2022-08-20T17:44:30.831Z,2.00
2022-08-20T17:47:00.791Z,2.13
2022-08-20T17:49:40.497Z,2.40
2022-08-20T17:52:18.701Z,1.90
2022-08-20T17:54:48.250Z,1.83
2022-08-20T17:57:21.012Z,2.03
2022-08-20T18:00:00.636Z,2.20
2022-08-20T18:02:29.704Z,1.90
2022-08-20T18:04:56.130Z,2.28
2022-08-20T18:07:51.241Z,2.38
2022-08-20T18:10:22.597Z,2.10
2022-08-20T18:13:10.150Z,2.00
2022-08-20T18:15:57.725Z,2.10
2022-08-20T18:18:32.939Z,2.08
2022-08-20T18:21:16.770Z,2.10
2022-08-20T18:23:49.288Z,2.13
2022-08-20T18:26:48.926Z,1.95
2022-08-20T18:29:24.475Z,1.80
2022-08-20T18:32:00.795Z,2.05
2022-08-20T18:34:29.982Z,2.20
2022-08-20T18:37:04.019Z,2.10
2022-08-20T18:39:37.357Z,2.40
2022-08-20T18:42:07.686Z,2.45
2022-08-20T18:44:46.693Z,2.50
2022-08-20T18:47:24.601Z,2.35
2022-08-20T18:50:15.792Z,2.20
2022-08-20T18:52:49.553Z,2.15
2022-08-20T18:55:41.579Z,2.40
2022-08-20T18:58:11.583Z,2.58
2022-08-20T19:00:44.299Z,3.60
2022-08-20T19:03:41.732Z,2.33
2022-08-20T19:06:32.913Z,2.53
2022-08-20T19:09:06.076Z,2.67
2022-08-20T19:11:44.530Z,2.78
2022-08-20T19:14:25.979Z,2.80
2022-08-20T19:17:05.210Z,2.47
2022-08-20T19:19:33.076Z,2.55
2022-08-20T19:22:01.789Z,2.40
2022-08-20T19:24:35.063Z,2.40
2022-08-20T19:27:05.512Z,2.60
2022-08-20T19:29:42.992Z,2.20
2022-08-20T19:32:21.229Z,2.50
2022-08-20T19:34:54.905Z,2.47
2022-08-20T19:37:34.950Z,2.60
2022-08-20T19:40:05.174Z,2.92
2022-08-20T19:42:36.135Z,3.00
2022-08-20T19:45:07.437Z,3.13
2022-08-20T19:47:45.999Z,3.00
2022-08-20T19:50:21.440Z,3.22
2022-08-20T19:52:56.717Z,3.40
2022-08-20T19:55:30.629Z,3.20
2022-08-20T19:57:59.600Z,3.38
2022-08-20T20:00:37.360Z,3.17
2022-08-20T20:03:32.726Z,2.90
2022-08-20T20:06:16.155Z,2.78
2022-08-20T20:08:52.941Z,3.05
2022-08-20T20:11:21.271Z,3.40
2022-08-20T20:13:47.888Z,3.30
2022-08-20T20:16:18.011Z,3.00
2022-08-20T20:18:44.836Z,2.83
2022-08-20T20:21:15.644Z,2.83
2022-08-20T20:23:56.173Z,4.03
2022-08-20T20:26:23.001Z,3.90
2022-08-20T20:28:53.064Z,3.17
2022-08-20T20:31:30.185Z,3.80
2022-08-20T20:33:59.935Z,3.63
2022-08-20T20:36:47.656Z,3.20
2022-08-20T20:39:28.700Z,2.95
2022-08-20T20:41:58.641Z,3.30
2022-08-20T20:44:28.821Z,3.40
2022-08-20T20:46:58.868Z,3.78
2022-08-20T20:49:26.990Z,3.95
2022-08-20T20:52:00.000Z,3.80
2022-08-20T20:54:37.150Z,4.20
2022-08-20T20:57:06.525Z,4.18
2022-08-20T20:59:35.239Z,4.00
2022-08-20T21:02:02.698Z,4.25
2022-08-20T21:04:29.192Z,3.95
2022-08-20T21:06:57.668Z,4.32
2022-08-20T21:09:25.145Z,3.78
2022-08-20T21:11:52.082Z,3.28
2022-08-20T21:14:18.659Z,3.60
2022-08-20T21:16:45.349Z,3.58
2022-08-20T21:19:12.613Z,3.40
2022-08-20T21:21:39.607Z,3.13
2022-08-20T21:24:06.683Z,3.58
2022-08-20T21:26:33.605Z,3.35
2022-08-20T21:29:00.105Z,3.30
2022-08-20T21:31:32.854Z,3.30
2022-08-20T21:33:59.512Z,3.78
2022-08-20T21:36:25.917Z,3.40
2022-08-20T21:38:52.275Z,3.58
2022-08-20T21:41:18.655Z,3.47
2022-08-20T21:43:56.141Z,3.95
2022-08-20T21:46:24.968Z,5.70
2022-08-20T21:48:51.551Z,3.55
2022-08-20T21:51:17.872Z,4.13
2022-08-20T21:53:44.213Z,3.75
2022-08-20T21:56:10.651Z,4.47
2022-08-20T21:58:37.679Z,4.70
2022-08-20T22:01:06.048Z,4.57
2022-08-20T22:03:37.204Z,4.18
2022-08-20T22:06:06.836Z,4.28
2022-08-20T22:08:33.640Z,4.18
2022-08-20T22:11:01.414Z,4.85
2022-08-20T22:13:30.816Z,5.78
2022-08-20T22:16:02.236Z,5.55
2022-08-20T22:18:29.123Z,4.95
2022-08-20T22:20:55.842Z,4.63
2022-08-20T22:23:23.452Z,6.13
2022-08-20T22:25:50.148Z,5.47
2022-08-20T22:28:17.562Z,6.95
2022-08-20T22:30:44.189Z,5.82
2022-08-20T22:33:14.264Z,5.70
2022-08-20T22:35:44.412Z,5.97
2022-08-20T22:38:10.961Z,6.32
2022-08-20T22:40:37.557Z,6.00
2022-08-20T22:43:04.006Z,6.43
2022-08-20T22:45:30.368Z,5.97
2022-08-20T22:47:56.760Z,7.00
2022-08-20T22:50:24.071Z,6.55
2022-08-20T22:52:51.531Z,7.28
2022-08-20T22:55:17.941Z,6.95
2022-08-20T22:57:46.791Z,6.72
2022-08-20T23:00:17.285Z,7.07
2022-08-20T23:02:46.857Z,6.93
2022-08-20T23:05:16.928Z,6.57
2022-08-20T23:07:43.436Z,8.02
2022-08-20T23:10:09.845Z,9.63
2022-08-20T23:12:37.253Z,8.90
2022-08-20T23:15:04.703Z,9.63
2022-08-20T23:17:31.142Z,10.05
2022-08-20T23:19:57.974Z,9.93
2022-08-20T23:22:24.908Z,9.82
2022-08-20T23:24:51.481Z,7.95
2022-08-20T23:27:19.935Z,9.95
2022-08-20T23:29:47.379Z,9.98
2022-08-20T23:32:13.884Z,10.55
2022-08-20T23:34:40.345Z,10.43
2022-08-20T23:37:07.900Z,6.85
2022-08-20T23:39:34.768Z,6.43
2022-08-20T23:42:01.630Z,6.50
2022-08-20T23:44:28.092Z,6.25
2022-08-20T23:46:56.619Z,6.22
2022-08-20T23:49:23.184Z,5.40
2022-08-20T23:51:49.557Z,5.88
2022-08-20T23:54:15.917Z,6.60
2022-08-20T23:56:42.282Z,6.22
2022-08-20T23:59:08.697Z,6.65
